FSF120A LOWS-LIPV
Flight info
| Callsign | FSF120A |
|---|---|
| Flight time | 0h 43m |
| Altitude | 20000 |
| Route | VERDA DCT INGID DCT GIMIX DCT PESUT DCT RIFEN Y526 ELPEZ DCT OSLOP |
| Aircraft | PC12/L-SDFGRWY/S |
Departure
| Time | 2026-05-09 09:37 |
|---|---|
| Airport | Salzburg Airport (LOWS) |
Arrival
| Time | 2026-05-09 10:20 |
|---|---|
| Airport | Venice-Lido Giovanni Nicelli Airfield (LIPV) |
| Time | Latitude | Longitude | Altitude | Speed | Heading |
|---|---|---|---|---|---|
| 2026-05-09 09:24 | 47.79737 | 12.99672 | 1416 ft | 0 kts | 67° |
| 2026-05-09 09:33 | 47.79737 | 12.99674 | 1416 ft | 2 kts | 67° |
| 2026-05-09 09:34 | 47.79758 | 12.99744 | 1416 ft | 11 kts | 68° |
| 2026-05-09 09:34 | 47.79830 | 12.99816 | 1417 ft | 18 kts | 337° |
| 2026-05-09 09:34 | 47.79934 | 12.99749 | 1417 ft | 17 kts | 337° |
| 2026-05-09 09:36 | 47.80144 | 12.99876 | 1417 ft | 38 kts | 154° |
| 2026-05-09 09:36 | 47.79721 | 13.00149 | 1418 ft | 95 kts | 157° |
| 2026-05-09 09:36 | 47.79006 | 13.00618 | 1566 ft | 123 kts | 157° |
| 2026-05-09 09:37 | 47.78145 | 13.01141 | 1966 ft | 143 kts | 154° |
| 2026-05-09 09:37 | 47.77284 | 13.01971 | 2627 ft | 143 kts | 131° |
| 2026-05-09 09:37 | 47.76682 | 13.03075 | 3488 ft | 136 kts | 135° |
| 2026-05-09 09:37 | 47.75916 | 13.03869 | 4196 ft | 137 kts | 147° |
| 2026-05-09 09:38 | 47.75055 | 13.04637 | 4703 ft | 155 kts | 148° |
| 2026-05-09 09:38 | 47.74126 | 13.05463 | 5440 ft | 151 kts | 148° |
| 2026-05-09 09:38 | 47.73231 | 13.06276 | 6155 ft | 152 kts | 148° |
| 2026-05-09 09:38 | 47.72325 | 13.07102 | 6839 ft | 153 kts | 148° |
| 2026-05-09 09:39 | 47.71455 | 13.08023 | 7487 ft | 155 kts | 134° |
| 2026-05-09 09:39 | 47.70584 | 13.08946 | 8117 ft | 156 kts | 165° |
| 2026-05-09 09:39 | 47.69542 | 13.09391 | 8809 ft | 157 kts | 157° |
| 2026-05-09 09:39 | 47.68540 | 13.10077 | 9490 ft | 159 kts | 162° |
| 2026-05-09 09:40 | 47.67481 | 13.10574 | 10193 ft | 161 kts | 163° |
| 2026-05-09 09:40 | 47.66414 | 13.11119 | 10827 ft | 163 kts | 162° |
| 2026-05-09 09:40 | 47.65341 | 13.11696 | 11466 ft | 166 kts | 162° |
| 2026-05-09 09:40 | 47.64250 | 13.12286 | 12124 ft | 168 kts | 162° |
| 2026-05-09 09:41 | 47.63146 | 13.12881 | 12762 ft | 170 kts | 162° |
| 2026-05-09 09:41 | 47.62028 | 13.13486 | 13425 ft | 172 kts | 162° |
| 2026-05-09 09:41 | 47.60893 | 13.14096 | 14032 ft | 175 kts | 162° |
| 2026-05-09 09:41 | 47.59742 | 13.14717 | 14654 ft | 176 kts | 162° |
| 2026-05-09 09:42 | 47.58592 | 13.15337 | 15280 ft | 177 kts | 162° |
| 2026-05-09 09:42 | 47.57826 | 13.15750 | 15701 ft | 178 kts | 162° |
| 2026-05-09 09:42 | 47.56655 | 13.16381 | 16354 ft | 179 kts | 162° |
| 2026-05-09 09:42 | 47.55095 | 13.17220 | 17264 ft | 181 kts | 163° |
| 2026-05-09 09:43 | 47.53900 | 13.17862 | 17932 ft | 183 kts | 163° |
| 2026-05-09 09:43 | 47.52693 | 13.18512 | 18574 ft | 185 kts | 164° |
| 2026-05-09 09:43 | 47.51476 | 13.19165 | 19176 ft | 187 kts | 164° |
| 2026-05-09 09:43 | 47.50241 | 13.19828 | 19753 ft | 191 kts | 164° |
| 2026-05-09 09:44 | 47.49402 | 13.20277 | 20016 ft | 193 kts | 165° |
| 2026-05-09 09:44 | 47.48069 | 13.20985 | 20150 ft | 219 kts | 165° |
| 2026-05-09 09:44 | 47.46538 | 13.21798 | 20152 ft | 246 kts | 164° |
| 2026-05-09 09:44 | 47.44866 | 13.22695 | 20150 ft | 264 kts | 163° |
| 2026-05-09 09:45 | 47.43105 | 13.23646 | 20148 ft | 274 kts | 163° |
| 2026-05-09 09:45 | 47.41295 | 13.24618 | 20143 ft | 280 kts | 163° |
| 2026-05-09 09:45 | 47.39463 | 13.25597 | 20144 ft | 282 kts | 163° |
| 2026-05-09 09:45 | 47.37594 | 13.26595 | 20140 ft | 288 kts | 163° |
| 2026-05-09 09:46 | 47.35700 | 13.27607 | 20140 ft | 291 kts | 163° |
| 2026-05-09 09:46 | 47.33788 | 13.28629 | 20140 ft | 293 kts | 163° |
| 2026-05-09 09:46 | 47.31869 | 13.29653 | 20135 ft | 292 kts | 163° |
| 2026-05-09 09:46 | 47.29971 | 13.30665 | 20138 ft | 290 kts | 163° |
| 2026-05-09 09:47 | 47.28067 | 13.31677 | 20136 ft | 291 kts | 163° |
| 2026-05-09 09:47 | 47.26162 | 13.32691 | 20135 ft | 291 kts | 163° |
| 2026-05-09 09:47 | 47.24253 | 13.33707 | 20133 ft | 292 kts | 163° |
| 2026-05-09 09:47 | 47.22340 | 13.34723 | 20133 ft | 292 kts | 163° |
| 2026-05-09 09:48 | 47.20426 | 13.35737 | 20126 ft | 291 kts | 164° |
| 2026-05-09 09:48 | 47.18485 | 13.36147 | 20122 ft | 283 kts | 187° |
| 2026-05-09 09:48 | 47.16559 | 13.35633 | 20124 ft | 281 kts | 197° |
| 2026-05-09 09:48 | 47.14642 | 13.35058 | 20122 ft | 282 kts | 192° |
| 2026-05-09 09:49 | 47.12687 | 13.34771 | 20127 ft | 283 kts | 187° |
| 2026-05-09 09:49 | 47.10705 | 13.34632 | 20126 ft | 285 kts | 186° |
| 2026-05-09 09:49 | 47.08722 | 13.34430 | 20124 ft | 286 kts | 188° |
| 2026-05-09 09:49 | 47.06738 | 13.34166 | 20125 ft | 286 kts | 189° |
| 2026-05-09 09:50 | 47.04759 | 13.33918 | 20121 ft | 284 kts | 188° |
| 2026-05-09 09:50 | 47.02789 | 13.33692 | 20120 ft | 284 kts | 188° |
| 2026-05-09 09:50 | 47.00822 | 13.33466 | 20117 ft | 283 kts | 188° |
| 2026-05-09 09:50 | 46.98858 | 13.33232 | 20115 ft | 283 kts | 188° |
| 2026-05-09 09:51 | 46.96895 | 13.32997 | 20112 ft | 283 kts | 188° |
| 2026-05-09 09:51 | 46.94927 | 13.32764 | 20115 ft | 285 kts | 188° |
| 2026-05-09 09:51 | 46.92969 | 13.32535 | 20115 ft | 286 kts | 188° |
| 2026-05-09 09:51 | 46.90988 | 13.32302 | 20116 ft | 286 kts | 188° |
| 2026-05-09 09:52 | 46.89002 | 13.32068 | 20112 ft | 286 kts | 188° |
| 2026-05-09 09:52 | 46.87016 | 13.31833 | 20115 ft | 286 kts | 188° |
| 2026-05-09 09:52 | 46.85029 | 13.31600 | 20105 ft | 286 kts | 188° |
| 2026-05-09 09:52 | 46.83048 | 13.31367 | 20108 ft | 286 kts | 188° |
| 2026-05-09 09:53 | 46.81064 | 13.31137 | 20104 ft | 286 kts | 188° |
| 2026-05-09 09:53 | 46.79084 | 13.30905 | 20104 ft | 285 kts | 188° |
| 2026-05-09 09:53 | 46.77141 | 13.30676 | 20097 ft | 284 kts | 188° |
| 2026-05-09 09:53 | 46.75130 | 13.30439 | 20096 ft | 284 kts | 188° |
| 2026-05-09 09:54 | 46.73157 | 13.30208 | 20093 ft | 284 kts | 188° |
| 2026-05-09 09:54 | 46.71185 | 13.29977 | 20097 ft | 285 kts | 188° |
| 2026-05-09 09:54 | 46.69205 | 13.29747 | 20100 ft | 286 kts | 188° |
| 2026-05-09 09:54 | 46.67218 | 13.29518 | 20098 ft | 286 kts | 188° |
| 2026-05-09 09:55 | 46.65236 | 13.29282 | 20093 ft | 285 kts | 188° |
| 2026-05-09 09:55 | 46.63284 | 13.29052 | 20094 ft | 286 kts | 188° |
| 2026-05-09 09:55 | 46.61298 | 13.28824 | 20036 ft | 288 kts | 188° |
| 2026-05-09 09:55 | 46.59292 | 13.28592 | 19717 ft | 288 kts | 188° |
| 2026-05-09 09:56 | 46.57309 | 13.28360 | 19360 ft | 286 kts | 187° |
| 2026-05-09 09:56 | 46.55303 | 13.28126 | 18967 ft | 291 kts | 187° |
| 2026-05-09 09:56 | 46.53265 | 13.27888 | 18579 ft | 294 kts | 187° |
| 2026-05-09 09:56 | 46.51211 | 13.27651 | 18154 ft | 296 kts | 187° |
| 2026-05-09 09:57 | 46.49185 | 13.27418 | 17759 ft | 281 kts | 187° |
| 2026-05-09 09:57 | 46.47233 | 13.27192 | 17401 ft | 284 kts | 187° |
| 2026-05-09 09:57 | 46.45242 | 13.26958 | 17023 ft | 289 kts | 186° |
| 2026-05-09 09:57 | 46.43261 | 13.26730 | 16635 ft | 291 kts | 186° |
| 2026-05-09 09:58 | 46.41250 | 13.26498 | 16251 ft | 289 kts | 186° |
| 2026-05-09 09:58 | 46.39922 | 13.26343 | 16001 ft | 286 kts | 186° |
| 2026-05-09 09:58 | 46.39478 | 13.26292 | 15910 ft | 283 kts | 186° |
| 2026-05-09 09:58 | 46.37665 | 13.26083 | 15576 ft | 283 kts | 186° |
| 2026-05-09 09:59 | 46.35695 | 13.25856 | 15198 ft | 285 kts | 186° |
| 2026-05-09 09:59 | 46.33728 | 13.25629 | 14815 ft | 278 kts | 186° |
| 2026-05-09 09:59 | 46.31806 | 13.25409 | 14458 ft | 276 kts | 186° |
| 2026-05-09 09:59 | 46.29893 | 13.25187 | 14094 ft | 275 kts | 186° |
| 2026-05-09 10:00 | 46.28021 | 13.24970 | 13715 ft | 274 kts | 186° |
| 2026-05-09 10:00 | 46.26125 | 13.24754 | 13343 ft | 271 kts | 186° |
| 2026-05-09 10:00 | 46.24249 | 13.24538 | 12984 ft | 270 kts | 186° |
| 2026-05-09 10:00 | 46.22383 | 13.24323 | 12637 ft | 269 kts | 186° |
| 2026-05-09 10:01 | 46.20520 | 13.24109 | 12280 ft | 267 kts | 186° |
| 2026-05-09 10:01 | 46.18672 | 13.23898 | 11934 ft | 266 kts | 185° |
| 2026-05-09 10:01 | 46.16832 | 13.23687 | 11582 ft | 265 kts | 186° |
| 2026-05-09 10:01 | 46.14996 | 13.23474 | 11176 ft | 265 kts | 185° |
| 2026-05-09 10:02 | 46.13157 | 13.23266 | 10793 ft | 264 kts | 185° |
| 2026-05-09 10:02 | 46.11335 | 13.23060 | 10440 ft | 260 kts | 185° |
| 2026-05-09 10:02 | 46.09558 | 13.22855 | 10106 ft | 254 kts | 185° |
| 2026-05-09 10:02 | 46.07804 | 13.22653 | 9754 ft | 252 kts | 185° |
| 2026-05-09 10:03 | 46.06059 | 13.22454 | 9420 ft | 252 kts | 184° |
| 2026-05-09 10:03 | 46.04302 | 13.22255 | 9084 ft | 254 kts | 184° |
| 2026-05-09 10:03 | 46.02537 | 13.22054 | 8749 ft | 254 kts | 185° |
| 2026-05-09 10:03 | 46.00776 | 13.21853 | 8408 ft | 253 kts | 184° |
| 2026-05-09 10:04 | 45.99026 | 13.21654 | 8075 ft | 251 kts | 184° |
| 2026-05-09 10:04 | 45.97289 | 13.21456 | 7748 ft | 250 kts | 184° |
| 2026-05-09 10:04 | 45.95562 | 13.21260 | 7415 ft | 248 kts | 185° |
| 2026-05-09 10:04 | 45.93844 | 13.21059 | 7075 ft | 247 kts | 185° |
| 2026-05-09 10:05 | 45.92159 | 13.20624 | 6706 ft | 246 kts | 196° |
| 2026-05-09 10:05 | 45.90614 | 13.19666 | 6355 ft | 245 kts | 210° |
| 2026-05-09 10:05 | 45.89201 | 13.18350 | 6126 ft | 240 kts | 214° |
| 2026-05-09 10:05 | 45.87821 | 13.16992 | 5876 ft | 240 kts | 214° |
| 2026-05-09 10:06 | 45.86447 | 13.15632 | 5595 ft | 239 kts | 214° |
| 2026-05-09 10:06 | 45.85078 | 13.14279 | 5311 ft | 238 kts | 214° |
| 2026-05-09 10:06 | 45.83717 | 13.12930 | 5041 ft | 237 kts | 214° |
| 2026-05-09 10:06 | 45.82355 | 13.11586 | 4770 ft | 237 kts | 214° |
| 2026-05-09 10:07 | 45.81004 | 13.10255 | 4495 ft | 235 kts | 214° |
| 2026-05-09 10:07 | 45.79651 | 13.08927 | 4225 ft | 234 kts | 214° |
| 2026-05-09 10:07 | 45.78309 | 13.07612 | 3960 ft | 233 kts | 214° |
| 2026-05-09 10:07 | 45.76976 | 13.06317 | 3693 ft | 230 kts | 214° |
| 2026-05-09 10:08 | 45.75653 | 13.05038 | 3428 ft | 231 kts | 214° |
| 2026-05-09 10:08 | 45.74326 | 13.03754 | 3162 ft | 229 kts | 214° |
| 2026-05-09 10:08 | 45.73001 | 13.02488 | 2893 ft | 228 kts | 214° |
| 2026-05-09 10:08 | 45.71682 | 13.01242 | 2650 ft | 228 kts | 214° |
| 2026-05-09 10:09 | 45.70373 | 12.99998 | 2361 ft | 226 kts | 214° |
| 2026-05-09 10:09 | 45.69070 | 12.98756 | 2107 ft | 226 kts | 214° |
| 2026-05-09 10:09 | 45.67759 | 12.97503 | 1830 ft | 227 kts | 214° |
| 2026-05-09 10:09 | 45.66450 | 12.96247 | 1528 ft | 225 kts | 214° |
| 2026-05-09 10:10 | 45.65176 | 12.95019 | 1486 ft | 218 kts | 214° |
| 2026-05-09 10:10 | 45.63922 | 12.93810 | 1494 ft | 216 kts | 214° |
| 2026-05-09 10:10 | 45.62676 | 12.92607 | 1496 ft | 216 kts | 214° |
| 2026-05-09 10:10 | 45.61427 | 12.91401 | 1501 ft | 216 kts | 214° |
| 2026-05-09 10:11 | 45.60174 | 12.90196 | 1398 ft | 218 kts | 214° |
| 2026-05-09 10:11 | 45.58912 | 12.88979 | 1275 ft | 219 kts | 214° |
| 2026-05-09 10:11 | 45.57761 | 12.87585 | 1136 ft | 215 kts | 229° |
| 2026-05-09 10:11 | 45.56977 | 12.86002 | 1005 ft | 189 kts | 240° |
| 2026-05-09 10:12 | 45.56370 | 12.84385 | 998 ft | 183 kts | 242° |
| 2026-05-09 10:12 | 45.55782 | 12.82782 | 992 ft | 182 kts | 242° |
| 2026-05-09 10:12 | 45.55196 | 12.81182 | 996 ft | 182 kts | 242° |
| 2026-05-09 10:12 | 45.54618 | 12.79603 | 1001 ft | 182 kts | 242° |
| 2026-05-09 10:13 | 45.54084 | 12.78145 | 1001 ft | 182 kts | 242° |
| 2026-05-09 10:13 | 45.53495 | 12.76538 | 1004 ft | 182 kts | 242° |
| 2026-05-09 10:13 | 45.52909 | 12.74939 | 1004 ft | 182 kts | 242° |
| 2026-05-09 10:13 | 45.52323 | 12.73339 | 1007 ft | 182 kts | 242° |
| 2026-05-09 10:14 | 45.51737 | 12.71737 | 1008 ft | 182 kts | 242° |
| 2026-05-09 10:14 | 45.51150 | 12.70134 | 1011 ft | 182 kts | 242° |
| 2026-05-09 10:14 | 45.50571 | 12.68554 | 1012 ft | 182 kts | 242° |
| 2026-05-09 10:14 | 45.49977 | 12.66934 | 1013 ft | 183 kts | 242° |
| 2026-05-09 10:15 | 45.49388 | 12.65328 | 1014 ft | 183 kts | 242° |
| 2026-05-09 10:15 | 45.48800 | 12.63724 | 1017 ft | 183 kts | 242° |
| 2026-05-09 10:15 | 45.48218 | 12.62139 | 1011 ft | 182 kts | 242° |
| 2026-05-09 10:15 | 45.47629 | 12.60535 | 1018 ft | 182 kts | 242° |
| 2026-05-09 10:16 | 45.47041 | 12.58932 | 1019 ft | 183 kts | 242° |
| 2026-05-09 10:16 | 45.46451 | 12.57328 | 1019 ft | 182 kts | 243° |
| 2026-05-09 10:16 | 45.46196 | 12.55593 | 1014 ft | 182 kts | 278° |
| 2026-05-09 10:16 | 45.46728 | 12.53968 | 1025 ft | 183 kts | 302° |
| 2026-05-09 10:17 | 45.47279 | 12.52388 | 1016 ft | 161 kts | 290° |
| 2026-05-09 10:17 | 45.47606 | 12.50954 | 1021 ft | 147 kts | 287° |
| 2026-05-09 10:17 | 45.47847 | 12.49579 | 1027 ft | 145 kts | 272° |
| 2026-05-09 10:17 | 45.47622 | 12.48231 | 1010 ft | 135 kts | 241° |
| 2026-05-09 10:18 | 45.47061 | 12.47113 | 958 ft | 146 kts | 233° |
| 2026-05-09 10:18 | 45.46494 | 12.45982 | 782 ft | 125 kts | 233° |
| 2026-05-09 10:18 | 45.46044 | 12.45092 | 641 ft | 106 kts | 232° |
| 2026-05-09 10:18 | 45.45601 | 12.44227 | 542 ft | 102 kts | 233° |
| 2026-05-09 10:19 | 45.45229 | 12.43489 | 408 ft | 84 kts | 233° |
| 2026-05-09 10:19 | 45.44896 | 12.42837 | 213 ft | 79 kts | 231° |
| 2026-05-09 10:19 | 45.44529 | 12.42155 | 268 ft | 97 kts | 227° |
| 2026-05-09 10:19 | 45.44128 | 12.41325 | 271 ft | 103 kts | 232° |
| 2026-05-09 10:20 | 45.43709 | 12.40495 | 192 ft | 99 kts | 232° |
| 2026-05-09 10:20 | 45.43342 | 12.39785 | 93 ft | 88 kts | 232° |
| 2026-05-09 10:20 | 45.42985 | 12.39095 | 9 ft | 73 kts | 234° |
| 2026-05-09 10:20 | 45.42760 | 12.38656 | 7 ft | 35 kts | 233° |
| 2026-05-09 10:21 | 45.42693 | 12.38525 | 8 ft | 10 kts | 233° |
| 2026-05-09 10:21 | 45.42670 | 12.38416 | 11 ft | 11 kts | 283° |
| 2026-05-09 10:21 | 45.42672 | 12.38401 | 12 ft | 0 kts | 284° |
| 2026-05-09 10:22 | 45.42679 | 12.38367 | 11 ft | 9 kts | 284° |
| 2026-05-09 10:22 | 45.42692 | 12.38307 | 13 ft | 5 kts | 270° |
| 2026-05-09 10:22 | 45.42637 | 12.38273 | 12 ft | 2 kts | 265° |
| 2026-05-09 10:22 | 45.42643 | 12.38270 | 13 ft | 1 kts | 15° |
| 2026-05-09 10:23 | 45.42644 | 12.38271 | 13 ft | 0 kts | 19° |